Time;durP1;ratioP1;P1;durP2;ratioP2;P2;SDS_P1;SDS_P2;PMS_P1;PMS_P2;Temp;Humidity;BMP_temperature;BMP_pressure;BME280_temperature;BME280_humidity;BME280_pressure;Samples;Min_cycle;Max_cycle;Signal;HPM_P1;HPM_P2
2022/07/30 00:02:06;;;;;;;;;;;16.50;99.90;;;;;;5072632;28;20023;-85
2022/07/30 00:04:32;;;;;;;;;;;16.40;99.90;;;;;;5054422;28;20379;-84
2022/07/30 00:06:58;;;;;;;;;;;16.40;99.90;;;;;;5059076;28;19978;-84
2022/07/30 00:09:24;;;;;;;;;;;16.40;99.90;;;;;;5058882;28;20022;-84
2022/07/30 00:11:49;;;;;;;;;;;16.40;99.90;;;;;;5061688;28;19932;-84
2022/07/30 00:14:15;;;;;;;;;;;16.40;99.90;;;;;;5067101;28;19931;-85
2022/07/30 00:16:40;;;;;;;;;;;16.40;99.90;;;;;;5107524;28;19924;-85
2022/07/30 00:19:06;;;;;;;;;;;16.40;99.90;;;;;;5115840;28;19992;-85
2022/07/30 00:21:32;;;;;;;;;;;16.40;99.90;;;;;;5078461;28;19935;-85
2022/07/30 00:23:57;;;;;;;;;;;16.40;99.90;;;;;;5096848;28;19931;-84
2022/07/30 00:26:23;;;;;;;;;;;16.40;99.90;;;;;;5112985;28;19947;-84
2022/07/30 00:28:48;;;;;;;;;;;16.40;99.90;;;;;;5098993;28;19924;-84
2022/07/30 00:31:14;;;;;;;;;;;16.30;99.90;;;;;;5097271;28;19923;-85
2022/07/30 00:33:39;;;;;;;;;;;16.30;99.90;;;;;;5115852;28;19928;-84
2022/07/30 00:36:05;;;;;;;;;;;16.30;99.90;;;;;;5098370;28;19975;-85
2022/07/30 00:38:30;;;;;;;;;;;16.20;99.90;;;;;;5115561;28;20364;-84
2022/07/30 00:40:57;;;;;;;;;;;16.10;99.90;;;;;;5115579;28;20256;-85
2022/07/30 00:43:22;;;;;;;;;;;16.10;99.90;;;;;;5098048;28;19924;-85
2022/07/30 00:45:48;;;;;;;;;;;16.00;99.90;;;;;;5115548;28;19924;-84
2022/07/30 00:48:14;;;;;;;;;;;15.90;99.90;;;;;;5115232;28;19924;-85
2022/07/30 00:50:39;;;;;;;;;;;15.80;99.90;;;;;;5081354;28;19928;-84
2022/07/30 00:53:05;;;;;;;;;;;15.80;99.90;;;;;;5077869;28;19972;-85
2022/07/30 00:55:31;;;;;;;;;;;15.80;99.90;;;;;;5114966;28;20380;-84
2022/07/30 00:57:56;;;;;;;;;;;15.70;99.90;;;;;;5115349;28;19923;-85
2022/07/30 01:00:22;;;;;;;;;;;15.70;99.90;;;;;;5097890;28;19969;-85
2022/07/30 01:02:48;;;;;;;;;;;15.70;99.90;;;;;;5097883;28;19924;-85
2022/07/30 01:05:14;;;;;;;;;;;15.80;99.90;;;;;;5150176;27;19924;-85
2022/07/30 01:07:39;;;;;;;;;;;15.70;99.90;;;;;;5097797;28;19935;-85
2022/07/30 01:10:06;;;;;;;;;;;15.70;99.90;;;;;;5115076;28;19924;-85
2022/07/30 01:12:32;;;;;;;;;;;15.70;99.90;;;;;;5102179;28;19924;-84
2022/07/30 01:14:58;;;;;;;;;;;15.70;99.90;;;;;;5114649;28;19943;-85
2022/07/30 01:17:24;;;;;;;;;;;15.70;99.90;;;;;;5081139;28;19977;-85
2022/07/30 01:19:51;;;;;;;;;;;15.70;99.90;;;;;;5097933;28;19932;-85
2022/07/30 01:22:28;;;;;;;;;;;15.70;99.90;;;;;;5089279;28;19934;-85
2022/07/30 01:25:06;;;;;;;;;;;15.70;99.90;;;;;;5113637;28;19977;-84
2022/07/30 01:27:34;;;;;;;;;;;15.60;99.90;;;;;;5097972;28;19963;-84
2022/07/30 01:30:01;;;;;;;;;;;15.60;99.90;;;;;;5114896;28;19977;-85
2022/07/30 01:32:27;;;;;;;;;;;15.60;99.90;;;;;;5097063;28;20287;-85
2022/07/30 01:34:55;;;;;;;;;;;15.50;99.90;;;;;;5114204;28;19930;-84
2022/07/30 01:37:21;;;;;;;;;;;15.50;99.90;;;;;;5114574;28;19928;-85
2022/07/30 01:39:48;;;;;;;;;;;15.50;99.90;;;;;;5097716;28;19950;-85
2022/07/30 01:42:14;;;;;;;;;;;15.40;99.90;;;;;;5096591;28;19924;-85
2022/07/30 01:44:41;;;;;;;;;;;15.40;99.90;;;;;;5148669;27;19932;-85
2022/07/30 01:47:07;;;;;;;;;;;15.40;99.90;;;;;;5080695;28;19931;-84
2022/07/30 01:49:34;;;;;;;;;;;15.30;99.90;;;;;;5114243;28;20011;-84
2022/07/30 01:52:01;;;;;;;;;;;15.30;99.90;;;;;;5114302;28;19978;-84
2022/07/30 01:54:27;;;;;;;;;;;15.20;99.90;;;;;;5098953;28;19924;-85
2022/07/30 01:56:55;;;;;;;;;;;15.20;99.90;;;;;;5148455;27;19946;-85
2022/07/30 01:59:21;;;;;;;;;;;15.20;99.90;;;;;;5113378;28;19935;-85
2022/07/30 02:01:47;;;;;;;;;;;15.10;99.90;;;;;;5113864;28;19924;-85
2022/07/30 02:04:13;;;;;;;;;;;15.10;99.90;;;;;;5113230;28;20030;-84
2022/07/30 02:07:05;;;;;;;;;;;15.20;99.90;;;;;;5079696;28;19989;-85
2022/07/30 02:09:34;;;;;;;;;;;15.20;99.90;;;;;;5111513;28;20295;-85
2022/07/30 02:14:46;;;;;;;;;;;15.20;99.90;;;;;;5106381;28;19924;-85
2022/07/30 02:17:15;;;;;;;;;;;15.20;99.90;;;;;;5106498;28;19924;-85
2022/07/30 02:19:42;;;;;;;;;;;15.30;99.90;;;;;;5113877;28;19923;-85
2022/07/30 02:22:10;;;;;;;;;;;15.20;99.90;;;;;;5113710;28;19924;-84
2022/07/30 02:24:37;;;;;;;;;;;15.20;99.90;;;;;;5107496;28;20283;-84
2022/07/30 02:27:07;;;;;;;;;;;15.20;99.90;;;;;;5127628;27;20042;-84
2022/07/30 02:29:34;;;;;;;;;;;15.20;99.90;;;;;;5110297;28;19970;-84
2022/07/30 02:32:01;;;;;;;;;;;15.00;99.90;;;;;;5127502;27;19975;-85
2022/07/30 02:34:28;;;;;;;;;;;15.00;99.90;;;;;;5128505;27;20386;-85
2022/07/30 02:36:54;;;;;;;;;;;14.90;99.90;;;;;;5093371;28;19924;-85
2022/07/30 02:39:20;;;;;;;;;;;14.90;99.90;;;;;;5093909;28;19935;-85
2022/07/30 02:41:47;;;;;;;;;;;14.80;99.90;;;;;;5128111;27;19924;-85
2022/07/30 02:44:15;;;;;;;;;;;14.90;99.90;;;;;;5127708;27;20372;-86
2022/07/30 02:46:41;;;;;;;;;;;14.80;99.90;;;;;;5138940;27;20011;-85
2022/07/30 02:49:07;;;;;;;;;;;14.80;99.90;;;;;;5093886;28;19964;-86
2022/07/30 02:51:33;;;;;;;;;;;14.80;99.90;;;;;;5127787;27;20334;-86
2022/07/30 02:53:59;;;;;;;;;;;14.80;99.90;;;;;;5130607;27;20017;-86
2022/07/30 02:56:25;;;;;;;;;;;14.80;99.90;;;;;;5075899;28;19927;-85
2022/07/30 02:58:51;;;;;;;;;;;14.80;99.90;;;;;;5130369;27;20040;-86
2022/07/30 03:01:18;;;;;;;;;;;14.80;99.90;;;;;;5096148;28;19928;-86
2022/07/30 03:03:44;;;;;;;;;;;14.80;99.90;;;;;;5095423;28;20285;-85
2022/07/30 03:06:12;;;;;;;;;;;14.80;99.90;;;;;;5106958;28;19924;-85
2022/07/30 03:08:38;;;;;;;;;;;14.80;99.90;;;;;;5092624;28;19970;-86
2022/07/30 03:11:04;;;;;;;;;;;14.80;99.90;;;;;;5091930;28;19923;-86
2022/07/30 03:13:30;;;;;;;;;;;14.80;99.90;;;;;;5113170;28;20303;-86
2022/07/30 03:15:56;;;;;;;;;;;14.70;99.90;;;;;;5128185;27;19930;-86
2022/07/30 03:18:23;;;;;;;;;;;14.60;99.90;;;;;;5130545;28;19924;-85
2022/07/30 03:20:50;;;;;;;;;;;14.60;99.90;;;;;;5095992;28;19928;-85
2022/07/30 03:23:17;;;;;;;;;;;14.50;99.90;;;;;;5096014;28;20316;-86
2022/07/30 03:25:44;;;;;;;;;;;14.50;99.90;;;;;;5095655;28;19969;-85
2022/07/30 03:28:10;;;;;;;;;;;14.50;99.90;;;;;;5101099;28;20499;-85
2022/07/30 03:30:36;;;;;;;;;;;14.50;99.90;;;;;;5116455;28;19948;-86
2022/07/30 03:33:02;;;;;;;;;;;14.50;99.90;;;;;;5095333;28;20007;-85
2022/07/30 03:35:28;;;;;;;;;;;14.50;99.90;;;;;;5112004;28;20020;-85
2022/07/30 03:37:54;;;;;;;;;;;14.50;99.90;;;;;;5092159;28;19975;-85
2022/07/30 03:40:20;;;;;;;;;;;14.50;99.90;;;;;;5143000;27;19974;-86
2022/07/30 03:42:46;;;;;;;;;;;14.40;99.90;;;;;;5142674;27;20273;-85
2022/07/30 03:45:12;;;;;;;;;;;14.40;99.90;;;;;;5105186;28;20395;-85
2022/07/30 03:47:40;;;;;;;;;;;14.40;99.90;;;;;;5112748;28;19924;-85
2022/07/30 03:50:06;;;;;;;;;;;14.40;99.90;;;;;;5129496;27;19924;-85
2022/07/30 03:52:33;;;;;;;;;;;14.40;99.90;;;;;;5111750;28;20279;-86
2022/07/30 03:54:59;;;;;;;;;;;14.40;99.90;;;;;;5112229;28;19934;-85
2022/07/30 03:57:25;;;;;;;;;;;14.50;99.90;;;;;;5095714;28;19924;-85
2022/07/30 03:59:50;;;;;;;;;;;14.50;99.90;;;;;;5112268;28;19927;-85
2022/07/30 04:02:16;;;;;;;;;;;14.50;99.90;;;;;;5112732;28;19976;-85
2022/07/30 04:04:42;;;;;;;;;;;14.60;99.90;;;;;;5097696;28;19924;-86
2022/07/30 04:07:08;;;;;;;;;;;14.60;99.90;;;;;;5075577;28;19928;-85
2022/07/30 04:09:33;;;;;;;;;;;14.60;99.90;;;;;;5075597;28;20229;-85
2022/07/30 04:11:59;;;;;;;;;;;14.50;99.90;;;;;;5109072;28;20423;-86
2022/07/30 04:14:25;;;;;;;;;;;14.50;99.90;;;;;;5126187;27;19924;-85
2022/07/30 04:16:53;;;;;;;;;;;14.60;99.90;;;;;;5090349;28;20043;-86
2022/07/30 04:19:25;;;;;;;;;;;14.60;99.90;;;;;;5051985;28;19970;-85
2022/07/30 04:21:52;;;;;;;;;;;14.60;99.90;;;;;;5088328;28;19925;-85
2022/07/30 04:24:19;;;;;;;;;;;14.70;99.90;;;;;;5055073;28;19931;-85
2022/07/30 04:26:45;;;;;;;;;;;14.70;99.90;;;;;;5039156;28;19924;-85
2022/07/30 04:29:10;;;;;;;;;;;14.70;99.90;;;;;;5073063;28;19929;-85
2022/07/30 04:31:36;;;;;;;;;;;14.80;99.90;;;;;;5092269;28;20014;-85
2022/07/30 04:34:03;;;;;;;;;;;14.80;99.90;;;;;;5058619;28;19928;-85
2022/07/30 04:36:29;;;;;;;;;;;14.90;99.90;;;;;;5089780;28;19925;-85
2022/07/30 04:38:55;;;;;;;;;;;14.90;99.90;;;;;;5092046;28;19924;-86
2022/07/30 04:41:21;;;;;;;;;;;15.00;99.90;;;;;;5075327;28;19924;-85
2022/07/30 04:43:46;;;;;;;;;;;15.10;99.90;;;;;;5092023;28;20402;-86
2022/07/30 04:46:13;;;;;;;;;;;15.20;99.90;;;;;;5064213;28;20372;-86
2022/07/30 04:48:38;;;;;;;;;;;15.40;99.90;;;;;;5071927;28;19925;-85
2022/07/30 04:51:08;;;;;;;;;;;15.60;99.90;;;;;;5074546;28;20024;-85
2022/07/30 04:53:34;;;;;;;;;;;15.70;99.90;;;;;;5091800;28;19932;-85
2022/07/30 04:56:01;;;;;;;;;;;15.80;99.90;;;;;;5069185;28;19929;-86
2022/07/30 04:58:27;;;;;;;;;;;16.00;99.90;;;;;;5049738;28;19924;-86
2022/07/30 05:00:53;;;;;;;;;;;16.10;99.90;;;;;;5058103;28;20345;-85
2022/07/30 05:03:20;;;;;;;;;;;16.10;99.90;;;;;;5074618;28;19925;-86
2022/07/30 05:05:46;;;;;;;;;;;16.20;99.90;;;;;;5074716;28;20024;-86
2022/07/30 05:08:12;;;;;;;;;;;16.30;99.90;;;;;;5058163;28;19931;-86
2022/07/30 05:10:38;;;;;;;;;;;16.30;99.90;;;;;;5054747;28;19928;-85
2022/07/30 05:13:03;;;;;;;;;;;16.40;99.90;;;;;;5054253;28;20308;-86
2022/07/30 05:15:29;;;;;;;;;;;16.50;99.90;;;;;;5037595;28;19925;-86
2022/07/30 05:17:55;;;;;;;;;;;16.50;99.90;;;;;;5067625;28;19928;-86
2022/07/30 05:20:21;;;;;;;;;;;16.60;99.90;;;;;;5091205;28;19925;-86
2022/07/30 05:22:46;;;;;;;;;;;16.60;99.90;;;;;;5057720;28;19932;-86
2022/07/30 05:25:12;;;;;;;;;;;16.70;99.90;;;;;;5091190;28;19925;-86
2022/07/30 05:27:37;;;;;;;;;;;16.80;99.90;;;;;;5066385;28;20410;-86
2022/07/30 05:30:03;;;;;;;;;;;16.90;99.90;;;;;;5054114;28;19925;-86
2022/07/30 05:32:29;;;;;;;;;;;17.00;99.90;;;;;;5054538;28;19925;-85
2022/07/30 05:34:57;;;;;;;;;;;17.00;99.90;;;;;;5053949;28;19925;-86
2022/07/30 05:37:22;;;;;;;;;;;17.10;99.90;;;;;;5039234;28;19924;-86
2022/07/30 05:39:48;;;;;;;;;;;17.10;99.90;;;;;;5072614;28;20395;-86
2022/07/30 05:42:13;;;;;;;;;;;17.10;99.90;;;;;;5056685;28;19924;-86
2022/07/30 05:44:39;;;;;;;;;;;17.20;99.90;;;;;;5057357;28;20048;-86
2022/07/30 05:47:05;;;;;;;;;;;17.20;99.90;;;;;;5057021;28;19999;-86
2022/07/30 05:49:30;;;;;;;;;;;17.30;99.90;;;;;;5073264;28;19999;-85
2022/07/30 05:51:56;;;;;;;;;;;17.30;99.90;;;;;;5073379;28;19937;-86
2022/07/30 05:54:21;;;;;;;;;;;17.40;99.90;;;;;;5090706;28;20364;-86
2022/07/30 05:56:47;;;;;;;;;;;17.40;99.90;;;;;;5073535;28;19928;-85
2022/07/30 05:59:12;;;;;;;;;;;17.50;99.90;;;;;;5071850;28;19973;-86
2022/07/30 06:01:38;;;;;;;;;;;17.50;99.90;;;;;;5054994;28;19974;-86
2022/07/30 06:04:03;;;;;;;;;;;17.60;99.90;;;;;;5073533;28;19924;-86
2022/07/30 06:06:29;;;;;;;;;;;17.60;99.90;;;;;;5072484;28;20364;-86
2022/07/30 06:08:55;;;;;;;;;;;17.70;99.90;;;;;;5055874;28;19928;-86
2022/07/30 06:11:20;;;;;;;;;;;17.80;99.90;;;;;;5073408;28;19940;-84
2022/07/30 06:13:46;;;;;;;;;;;17.90;99.90;;;;;;5056520;28;19963;-89
2022/07/30 06:16:11;;;;;;;;;;;18.00;99.90;;;;;;5060525;28;19925;-84
2022/07/30 06:18:37;;;;;;;;;;;18.00;99.90;;;;;;5045313;28;19929;-74
2022/07/30 06:21:02;;;;;;;;;;;18.10;99.90;;;;;;5072907;28;19949;-80
2022/07/30 06:23:28;;;;;;;;;;;18.10;99.90;;;;;;5090130;28;19928;-84
2022/07/30 06:25:54;;;;;;;;;;;18.20;99.90;;;;;;5071651;28;19964;-79
2022/07/30 06:28:19;;;;;;;;;;;18.30;99.90;;;;;;5080956;28;20019;-82
2022/07/30 06:30:46;;;;;;;;;;;18.40;99.90;;;;;;5083266;28;19932;-77
2022/07/30 06:33:12;;;;;;;;;;;18.40;99.90;;;;;;5083584;28;19925;-84
2022/07/30 06:35:38;;;;;;;;;;;18.40;99.90;;;;;;5056253;28;19932;-83
2022/07/30 06:38:03;;;;;;;;;;;18.50;99.90;;;;;;5053563;28;20478;-80
2022/07/30 06:40:29;;;;;;;;;;;18.60;99.90;;;;;;5053061;28;19947;-85
2022/07/30 06:42:55;;;;;;;;;;;18.70;99.90;;;;;;5039274;28;19997;-83
2022/07/30 06:45:20;;;;;;;;;;;18.70;99.90;;;;;;5055507;28;19971;-83
2022/07/30 06:47:46;;;;;;;;;;;18.70;99.90;;;;;;5060628;28;20280;-84
2022/07/30 06:50:11;;;;;;;;;;;18.70;99.90;;;;;;5037665;28;19925;-84
2022/07/30 06:52:37;;;;;;;;;;;18.70;99.90;;;;;;5056316;28;19931;-87
2022/07/30 06:55:03;;;;;;;;;;;18.60;99.90;;;;;;5055947;28;20291;-77
2022/07/30 06:57:28;;;;;;;;;;;18.60;99.90;;;;;;5045586;28;19935;-78
2022/07/30 06:59:54;;;;;;;;;;;18.60;99.90;;;;;;5067824;28;20293;-77
2022/07/30 07:02:19;;;;;;;;;;;18.50;99.90;;;;;;5038775;28;19935;-77
2022/07/30 07:04:45;;;;;;;;;;;18.50;99.90;;;;;;5055966;28;19932;-78
2022/07/30 07:07:11;;;;;;;;;;;18.60;99.90;;;;;;5072303;28;20007;-77
2022/07/30 07:09:36;;;;;;;;;;;18.60;99.90;;;;;;5071490;28;19931;-78
2022/07/30 07:12:02;;;;;;;;;;;18.60;99.90;;;;;;5050146;28;19928;-76
2022/07/30 07:14:28;;;;;;;;;;;18.70;99.90;;;;;;5052494;28;20015;-79
2022/07/30 07:16:53;;;;;;;;;;;18.60;99.90;;;;;;5065925;28;19972;-78
2022/07/30 07:19:19;;;;;;;;;;;18.60;99.90;;;;;;5072949;28;19924;-78
2022/07/30 07:21:45;;;;;;;;;;;18.70;99.90;;;;;;5055620;28;20349;-78
2022/07/30 07:24:10;;;;;;;;;;;18.80;99.90;;;;;;5055574;28;20019;-78
2022/07/30 07:26:36;;;;;;;;;;;19.00;99.90;;;;;;5072388;28;20369;-78
2022/07/30 07:29:02;;;;;;;;;;;19.10;99.90;;;;;;5071604;28;20465;-78
2022/07/30 07:31:27;;;;;;;;;;;19.10;99.90;;;;;;5105657;28;19924;-78
2022/07/30 07:33:53;;;;;;;;;;;19.10;99.90;;;;;;5072358;28;20014;-79
2022/07/30 07:36:22;;;;;;;;;;;19.10;99.90;;;;;;5071800;28;19952;-79
2022/07/30 07:38:47;;;;;;;;;;;19.10;99.90;;;;;;5088475;28;19931;-79
2022/07/30 07:41:13;;;;;;;;;;;19.00;99.90;;;;;;5071603;28;20003;-80
2022/07/30 07:43:39;;;;;;;;;;;19.00;99.90;;;;;;5072229;28;19924;-79
2022/07/30 07:46:05;;;;;;;;;;;19.10;99.90;;;;;;5089144;28;19987;-78
2022/07/30 07:48:31;;;;;;;;;;;19.20;99.90;;;;;;5088651;28;19924;-79
2022/07/30 07:50:56;;;;;;;;;;;19.20;99.90;;;;;;5082513;28;19946;-79
2022/07/30 07:53:22;;;;;;;;;;;19.30;99.90;;;;;;5080405;28;19931;-80
2022/07/30 07:55:47;;;;;;;;;;;19.20;99.90;;;;;;5092209;28;19982;-79
2022/07/30 07:58:13;;;;;;;;;;;19.20;99.90;;;;;;5111253;28;20319;-79
2022/07/30 08:00:39;;;;;;;;;;;19.30;99.90;;;;;;5075163;28;19924;-80
2022/07/30 08:03:05;;;;;;;;;;;19.30;99.90;;;;;;5072475;28;19925;-80
2022/07/30 08:05:31;;;;;;;;;;;19.20;99.90;;;;;;5083111;28;19950;-81
2022/07/30 08:07:57;;;;;;;;;;;19.10;99.90;;;;;;5109817;28;19947;-81
2022/07/30 08:10:22;;;;;;;;;;;19.10;99.90;;;;;;5075652;28;19939;-80
2022/07/30 08:12:48;;;;;;;;;;;19.10;99.90;;;;;;5042251;28;19924;-80
2022/07/30 08:15:14;;;;;;;;;;;19.00;99.90;;;;;;5127228;27;19925;-81
2022/07/30 08:17:43;;;;;;;;;;;18.90;99.90;;;;;;5140654;27;19924;-80
2022/07/30 08:20:10;;;;;;;;;;;18.90;99.90;;;;;;5113609;28;19982;-84
2022/07/30 08:22:35;;;;;;;;;;;19.00;99.90;;;;;;5092421;28;20052;-81
2022/07/30 08:25:01;;;;;;;;;;;19.10;99.90;;;;;;5115953;28;20405;-81
2022/07/30 08:27:26;;;;;;;;;;;19.30;99.90;;;;;;5090313;28;19924;-81
2022/07/30 08:29:52;;;;;;;;;;;19.40;99.90;;;;;;5085937;28;20356;-79
2022/07/30 08:32:18;;;;;;;;;;;19.40;99.90;;;;;;5098171;28;20371;-80
2022/07/30 08:34:43;;;;;;;;;;;19.50;99.90;;;;;;5098646;28;19940;-79
2022/07/30 08:37:09;;;;;;;;;;;19.60;99.90;;;;;;5114728;28;19973;-79
2022/07/30 08:39:34;;;;;;;;;;;19.60;99.90;;;;;;5132150;27;19954;-78
2022/07/30 08:42:01;;;;;;;;;;;19.60;99.90;;;;;;5115486;28;19928;-78
2022/07/30 08:44:27;;;;;;;;;;;19.70;99.90;;;;;;5115565;28;19924;-78
2022/07/30 08:46:55;;;;;;;;;;;19.80;99.90;;;;;;5115721;28;19924;-79
2022/07/30 08:49:21;;;;;;;;;;;19.90;99.90;;;;;;5101625;28;19971;-79
2022/07/30 08:51:47;;;;;;;;;;;19.90;99.90;;;;;;5098401;28;19932;-78
2022/07/30 08:54:13;;;;;;;;;;;20.10;99.90;;;;;;5115623;28;19924;-77
2022/07/30 08:56:39;;;;;;;;;;;20.10;99.90;;;;;;5081638;28;19938;-80
2022/07/30 08:59:04;;;;;;;;;;;20.10;99.90;;;;;;5085142;28;19924;-81
2022/07/30 09:01:30;;;;;;;;;;;20.10;99.90;;;;;;5120291;27;19928;-81
2022/07/30 09:03:56;;;;;;;;;;;20.20;99.90;;;;;;5098519;28;19947;-82
2022/07/30 09:06:21;;;;;;;;;;;20.20;99.90;;;;;;5115380;28;19930;-82
2022/07/30 09:08:47;;;;;;;;;;;20.30;99.90;;;;;;5098026;28;20088;-83
2022/07/30 09:11:13;;;;;;;;;;;20.10;99.90;;;;;;5115065;28;19924;-81
2022/07/30 09:13:43;;;;;;;;;;;19.90;99.90;;;;;;5114958;28;20016;-81
2022/07/30 09:16:23;;;;;;;;;;;19.80;99.90;;;;;;5114672;28;19947;-79
2022/07/30 09:18:49;;;;;;;;;;;19.70;99.90;;;;;;5098334;28;19930;-80
2022/07/30 09:21:15;;;;;;;;;;;19.80;99.90;;;;;;5093561;28;19958;-81
2022/07/30 09:23:53;;;;;;;;;;;20.00;99.90;;;;;;5077590;28;19924;-81
2022/07/30 09:26:19;;;;;;;;;;;20.10;99.90;;;;;;5128420;27;19930;-81
2022/07/30 09:28:44;;;;;;;;;;;20.30;99.90;;;;;;5128374;27;20022;-81
2022/07/30 09:31:10;;;;;;;;;;;20.50;99.90;;;;;;5110965;28;19977;-82
2022/07/30 09:33:35;;;;;;;;;;;20.70;99.90;;;;;;5127622;27;19931;-81
2022/07/30 09:36:01;;;;;;;;;;;20.60;99.90;;;;;;5114583;28;19946;-80
2022/07/30 09:38:27;;;;;;;;;;;20.70;99.90;;;;;;5097517;28;20006;-80
2022/07/30 09:40:54;;;;;;;;;;;20.90;99.90;;;;;;5114663;28;20034;-80
2022/07/30 09:43:20;;;;;;;;;;;21.10;99.90;;;;;;5110380;28;20026;-82
2022/07/30 09:45:57;;;;;;;;;;;21.10;99.90;;;;;;5096637;28;20022;-81
2022/07/30 09:48:26;;;;;;;;;;;21.00;99.90;;;;;;5106219;28;19924;-84
2022/07/30 09:50:52;;;;;;;;;;;21.00;99.90;;;;;;5096691;28;19973;-81
2022/07/30 09:53:18;;;;;;;;;;;20.90;99.90;;;;;;5076662;28;20276;-86
2022/07/30 09:55:44;;;;;;;;;;;20.90;99.90;;;;;;5127494;27;19981;-82
2022/07/30 09:58:10;;;;;;;;;;;20.90;99.90;;;;;;5099987;28;19927;-81
2022/07/30 10:00:36;;;;;;;;;;;20.90;99.90;;;;;;5097272;28;19923;-79
2022/07/30 10:03:19;;;;;;;;;;;20.80;99.90;;;;;;5096204;28;20256;-78
2022/07/30 10:05:48;;;;;;;;;;;20.90;99.90;;;;;;5113826;28;20272;-79
2022/07/30 10:08:14;;;;;;;;;;;20.90;99.90;;;;;;5114347;28;19924;-82
2022/07/30 10:10:40;;;;;;;;;;;20.80;99.90;;;;;;5131014;27;19927;-83
2022/07/30 10:13:07;;;;;;;;;;;20.90;99.90;;;;;;5079560;28;20406;-80
2022/07/30 10:15:34;;;;;;;;;;;21.00;99.90;;;;;;5087641;28;20372;-82
2022/07/30 10:18:00;;;;;;;;;;;20.90;99.90;;;;;;5072466;28;19931;-82
2022/07/30 10:20:26;;;;;;;;;;;21.00;99.90;;;;;;5054781;28;19931;-81
2022/07/30 10:22:51;;;;;;;;;;;21.00;99.90;;;;;;5082696;28;19925;-81
2022/07/30 10:25:21;;;;;;;;;;;21.10;99.90;;;;;;5060984;28;19924;-82
2022/07/30 10:27:47;;;;;;;;;;;21.10;99.90;;;;;;5072031;28;19932;-82
2022/07/30 10:30:13;;;;;;;;;;;21.00;99.90;;;;;;5087725;28;19925;-81
2022/07/30 10:32:39;;;;;;;;;;;21.20;99.90;;;;;;5069527;28;19947;-80
2022/07/30 10:35:05;;;;;;;;;;;21.20;99.90;;;;;;5069537;28;19975;-83
2022/07/30 10:37:32;;;;;;;;;;;21.50;99.90;;;;;;5037119;28;19933;-83
2022/07/30 10:40:18;;;;;;;;;;;21.40;99.90;;;;;;5050550;28;19925;-81
2022/07/30 10:43:02;;;;;;;;;;;21.50;99.90;;;;;;5050140;28;19931;-80
2022/07/30 10:45:34;;;;;;;;;;;21.40;99.90;;;;;;5054186;28;19947;-81
2022/07/30 10:48:01;;;;;;;;;;;21.60;99.90;;;;;;5086874;28;20334;-80
2022/07/30 10:50:28;;;;;;;;;;;21.60;99.90;;;;;;5089528;28;19999;-80
2022/07/30 10:52:58;;;;;;;;;;;21.80;99.90;;;;;;5072625;28;19924;-80
2022/07/30 10:55:34;;;;;;;;;;;22.00;99.90;;;;;;5055899;28;19931;-79
2022/07/30 10:58:11;;;;;;;;;;;22.10;99.90;;;;;;5088950;28;19925;-80
2022/07/30 11:00:52;;;;;;;;;;;22.30;99.90;;;;;;5072511;28;20253;-80
2022/07/30 11:03:17;;;;;;;;;;;22.20;99.90;;;;;;5055619;28;20438;-79
2022/07/30 11:05:44;;;;;;;;;;;22.20;99.90;;;;;;5072407;28;19925;-81
2022/07/30 11:08:29;;;;;;;;;;;22.00;99.90;;;;;;5081031;28;19929;-80
2022/07/30 11:10:55;;;;;;;;;;;21.80;99.90;;;;;;5035720;28;19979;-80
2022/07/30 11:13:47;;;;;;;;;;;22.00;99.90;;;;;;5035807;28;19925;-79
2022/07/30 11:16:13;;;;;;;;;;;21.90;99.90;;;;;;5051775;28;20308;-80
2022/07/30 11:19:15;;;;;;;;;;;22.10;99.90;;;;;;5055757;28;19931;-81
2022/07/30 11:21:41;;;;;;;;;;;22.10;99.90;;;;;;5068174;28;19928;-81
2022/07/30 11:24:26;;;;;;;;;;;22.10;99.90;;;;;;5087697;28;20080;-81
2022/07/30 11:26:52;;;;;;;;;;;22.20;99.90;;;;;;5055033;28;19928;-81
2022/07/30 11:29:40;;;;;;;;;;;22.30;99.90;;;;;;5035084;28;20250;-80
2022/07/30 11:32:25;;;;;;;;;;;22.30;99.90;;;;;;5073352;28;19947;-80
2022/07/30 11:34:51;;;;;;;;;;;22.50;99.90;;;;;;5075516;28;19928;-79
2022/07/30 11:37:17;;;;;;;;;;;22.70;99.90;;;;;;5076076;28;20345;-81
2022/07/30 11:39:52;;;;;;;;;;;22.80;99.90;;;;;;5039079;28;20386;-80
2022/07/30 11:42:27;;;;;;;;;;;22.70;99.90;;;;;;5074577;28;19925;-80
2022/07/30 11:45:12;;;;;;;;;;;22.70;99.90;;;;;;5073807;28;20015;-81
2022/07/30 11:47:38;;;;;;;;;;;22.80;99.90;;;;;;5097330;28;19931;-82
2022/07/30 11:50:04;;;;;;;;;;;23.10;99.90;;;;;;5075713;28;19925;-81
2022/07/30 11:52:30;;;;;;;;;;;23.30;99.90;;;;;;5042799;28;19924;-80
2022/07/30 11:54:55;;;;;;;;;;;23.50;99.90;;;;;;5059068;28;19925;-79
2022/07/30 11:57:38;;;;;;;;;;;23.60;99.90;;;;;;5108911;28;19925;-83
2022/07/30 12:00:04;;;;;;;;;;;23.90;99.90;;;;;;5059212;28;19932;-76
2022/07/30 12:02:29;;;;;;;;;;;24.10;99.90;;;;;;5075868;28;20365;-86
2022/07/30 12:04:55;;;;;;;;;;;23.90;99.90;;;;;;5085977;28;19924;-79
2022/07/30 12:07:24;;;;;;;;;;;24.10;99.90;;;;;;5092440;28;19928;-84
2022/07/30 12:09:49;;;;;;;;;;;24.40;99.90;;;;;;5058852;28;19925;-79
2022/07/30 12:12:26;;;;;;;;;;;24.40;99.90;;;;;;5092027;28;19931;-80
2022/07/30 12:14:51;;;;;;;;;;;24.50;99.90;;;;;;5055001;28;19924;-78
2022/07/30 12:17:17;;;;;;;;;;;24.70;99.90;;;;;;5055175;28;19932;-81
2022/07/30 12:19:46;;;;;;;;;;;24.70;99.90;;;;;;5055554;28;20027;-81
2022/07/30 12:22:12;;;;;;;;;;;24.90;99.90;;;;;;5055608;28;19924;-83
2022/07/30 12:24:37;;;;;;;;;;;24.90;99.90;;;;;;5063504;28;19931;-82
2022/07/30 12:27:04;;;;;;;;;;;25.10;99.90;;;;;;5048023;28;19929;-81
2022/07/30 12:29:31;;;;;;;;;;;24.90;99.90;;;;;;5075187;28;19924;-81
2022/07/30 12:31:56;;;;;;;;;;;24.90;99.90;;;;;;5075253;28;19924;-82
2022/07/30 12:34:23;;;;;;;;;;;25.00;99.90;;;;;;5058704;28;20341;-81
2022/07/30 12:36:48;;;;;;;;;;;25.00;99.90;;;;;;5070244;28;19929;-81
2022/07/30 12:39:19;;;;;;;;;;;25.10;99.90;;;;;;5074287;28;19998;-80
2022/07/30 12:41:45;;;;;;;;;;;25.10;99.90;;;;;;5075139;28;19924;-83
2022/07/30 12:44:30;;;;;;;;;;;25.00;99.90;;;;;;5074677;28;19947;-84
2022/07/30 12:46:55;;;;;;;;;;;25.00;99.90;;;;;;5058237;28;20338;-84
2022/07/30 12:49:27;;;;;;;;;;;25.10;99.90;;;;;;5091569;28;19925;-85
2022/07/30 12:51:52;;;;;;;;;;;25.20;99.90;;;;;;5091051;28;19931;-84
2022/07/30 12:54:18;;;;;;;;;;;25.10;99.90;;;;;;5074875;28;20011;-82
2022/07/30 12:56:58;;;;;;;;;;;25.10;99.90;;;;;;5070671;28;19985;-86
2022/07/30 12:59:24;;;;;;;;;;;25.30;99.90;;;;;;5054920;28;19986;-85
2022/07/30 13:01:51;;;;;;;;;;;25.60;99.90;;;;;;5049437;28;20479;-86
2022/07/30 13:04:17;;;;;;;;;;;25.40;99.90;;;;;;5058005;28;20326;-86
2022/07/30 13:06:43;;;;;;;;;;;25.40;99.90;;;;;;5057637;28;19924;-86
2022/07/30 13:09:21;;;;;;;;;;;25.10;99.90;;;;;;5040803;28;19951;-86
2022/07/30 13:11:48;;;;;;;;;;;25.00;99.90;;;;;;5038242;28;19932;-85
2022/07/30 13:14:15;;;;;;;;;;;24.90;99.90;;;;;;5108103;28;20156;-86
2022/07/30 13:16:41;;;;;;;;;;;25.20;99.90;;;;;;5068022;28;19935;-85
2022/07/30 13:19:07;;;;;;;;;;;25.20;99.90;;;;;;5076850;28;19925;-85
2022/07/30 13:21:33;;;;;;;;;;;25.30;99.90;;;;;;5081313;28;20206;-85
2022/07/30 13:23:59;;;;;;;;;;;25.40;99.90;;;;;;5098040;28;19970;-87
2022/07/30 13:26:24;;;;;;;;;;;25.10;99.90;;;;;;5114847;28;19923;-83
2022/07/30 13:28:50;;;;;;;;;;;25.10;99.50;;;;;;5099494;28;20366;-88
2022/07/30 13:31:17;;;;;;;;;;;24.60;98.90;;;;;;5081450;28;19928;-83
2022/07/30 13:33:43;;;;;;;;;;;24.40;98.00;;;;;;5115060;27;19930;-88
2022/07/30 13:36:08;;;;;;;;;;;23.80;99.70;;;;;;5097485;28;19981;-91
2022/07/30 13:38:34;;;;;;;;;;;23.70;99.90;;;;;;5082688;28;19924;-88
2022/07/30 13:41:00;;;;;;;;;;;23.90;99.90;;;;;;5099122;28;19928;-87
2022/07/30 13:43:25;;;;;;;;;;;24.10;99.90;;;;;;5097502;28;19924;-86
2022/07/30 13:45:51;;;;;;;;;;;24.40;99.40;;;;;;5097150;28;19923;-86
2022/07/30 13:48:17;;;;;;;;;;;24.30;99.20;;;;;;5113937;28;19928;-86
2022/07/30 13:50:43;;;;;;;;;;;24.40;99.10;;;;;;5096698;28;20010;-85
2022/07/30 13:53:09;;;;;;;;;;;24.40;99.40;;;;;;5113811;28;19939;-84
2022/07/30 13:55:35;;;;;;;;;;;24.20;99.20;;;;;;5112664;28;20282;-84
2022/07/30 13:58:01;;;;;;;;;;;24.20;99.30;;;;;;5113752;28;19934;-85
2022/07/30 14:00:32;;;;;;;;;;;24.30;98.20;;;;;;5113402;28;20026;-86
2022/07/30 14:03:09;;;;;;;;;;;24.30;98.80;;;;;;5096800;28;19932;-88
2022/07/30 14:05:35;;;;;;;;;;;24.30;98.70;;;;;;5113616;28;20291;-88
2022/07/30 14:08:02;;;;;;;;;;;24.40;98.60;;;;;;5096814;28;20360;-86
2022/07/30 14:10:28;;;;;;;;;;;24.40;99.10;;;;;;5094704;28;20405;-86
2022/07/30 14:12:54;;;;;;;;;;;24.50;99.00;;;;;;5080425;28;19923;-88
2022/07/30 14:15:20;;;;;;;;;;;24.50;98.10;;;;;;5112978;28;19972;-89
2022/07/30 14:17:46;;;;;;;;;;;24.40;98.00;;;;;;5114280;28;20015;-89
2022/07/30 14:20:11;;;;;;;;;;;24.30;98.30;;;;;;5097244;28;19959;-91